Stratmoor Hills, Colorado
Current Conditions -  °F | °C
As of 10:06 PM on Monday 22 Dec 2014 (Local Time) from KCWN Reporting Station
Snow Showers Snow Showers  
Wind Chill: 13°   Ceiling: 800
Heat Index: 23°   Visibility: 6mi
Dew Point: 21°   Wind: 9mph
Humidity: 93%   Direction: 330°NNW
Pressure: 29.81"   Gusts: 16mph
Location:  38.7684°N, 104.872°W
Report Text: KCWN 230506Z AUTO 33008G14KT 300V010 6SM -SHSN BKN008 BKN039 M05/M06 A2981 RMK AO2 CIG 008V011
Loading
Personal Weather Stations






























Interactive Weather Map New forecast layout! Learn more

10-Day Weather Forecast

Advertisements
Track Severe Weather on mobile